createdAt,value
2023-01-02T00:00:28.704Z,4.41
2023-01-02T00:05:28.604Z,4.35
2023-01-02T00:10:28.579Z,4.49
2023-01-02T00:15:28.577Z,4.45
2023-01-02T00:20:28.559Z,4.38
2023-01-02T00:25:28.550Z,4.36
2023-01-02T00:30:32.403Z,4.39
2023-01-02T00:35:28.608Z,4.42
2023-01-02T00:40:28.602Z,4.52
2023-01-02T00:45:28.587Z,4.67
2023-01-02T00:50:28.602Z,4.79
2023-01-02T00:55:28.609Z,4.89
2023-01-02T01:00:28.599Z,4.95
2023-01-02T01:05:28.767Z,5.01
2023-01-02T01:10:28.587Z,5.05
2023-01-02T01:15:28.713Z,5.08
2023-01-02T01:20:28.528Z,5.11
2023-01-02T01:25:28.520Z,5.12
2023-01-02T01:30:28.506Z,5.23
2023-01-02T01:35:28.532Z,5.31
2023-01-02T01:40:28.506Z,5.41
2023-01-02T01:45:28.578Z,5.58
2023-01-02T01:50:28.519Z,5.58
2023-01-02T01:55:28.508Z,5.69
2023-01-02T02:00:28.491Z,5.79
2023-01-02T02:05:28.510Z,5.87
2023-01-02T02:10:28.533Z,5.98
2023-01-02T02:20:28.488Z,6.05
2023-01-02T02:25:28.633Z,6.05
2023-01-02T02:30:28.547Z,6.02
2023-01-02T02:45:28.604Z,6.14
2023-01-02T02:55:28.473Z,6.13
2023-01-02T03:15:28.530Z,5.67
2023-01-02T03:20:28.427Z,5.58
2023-01-02T03:25:28.430Z,5.53
2023-01-02T03:30:28.521Z,5.58
2023-01-02T03:35:28.432Z,5.59
2023-01-02T03:40:28.444Z,5.59
2023-01-02T03:45:28.445Z,5.66
2023-01-02T03:50:28.430Z,5.76
2023-01-02T03:55:28.442Z,5.87
2023-01-02T04:00:28.440Z,5.97
2023-01-02T04:05:28.410Z,6
2023-01-02T04:10:28.400Z,6.02
2023-01-02T04:15:28.410Z,5.98
2023-01-02T04:20:28.393Z,5.92
2023-01-02T04:25:28.400Z,5.9
2023-01-02T04:30:28.392Z,5.88
2023-01-02T04:35:28.397Z,5.82
2023-01-02T04:40:28.389Z,5.73
2023-01-02T04:45:28.382Z,5.69
2023-01-02T04:50:28.388Z,5.67
2023-01-02T04:55:28.365Z,5.59
2023-01-02T05:00:28.365Z,5.58
2023-01-02T05:05:28.353Z,5.58
2023-01-02T05:10:28.381Z,5.55
2023-01-02T05:15:28.366Z,5.47
2023-01-02T05:20:28.376Z,5.38
2023-01-02T05:25:28.371Z,5.27
2023-01-02T05:30:28.358Z,5.13
2023-01-02T05:35:32.377Z,5.01
2023-01-02T05:40:28.339Z,4.89
2023-01-02T05:45:28.327Z,4.75
2023-01-02T05:50:28.358Z,4.61
2023-01-02T05:55:28.310Z,4.49
2023-01-02T06:00:28.345Z,4.42
2023-01-02T06:05:28.305Z,4.43
2023-01-02T06:10:28.410Z,4.41
2023-01-02T06:15:28.321Z,4.39
2023-01-02T06:20:28.299Z,4.4
2023-01-02T06:25:28.409Z,4.22
2023-01-02T06:30:28.404Z,4.2
2023-01-02T06:35:28.335Z,4.18
2023-01-02T06:40:28.292Z,4.05
2023-01-02T06:45:28.299Z,4.02
2023-01-02T06:50:34.565Z,4.07
2023-01-02T06:55:28.303Z,3.99
2023-01-02T07:00:28.271Z,3.99
2023-01-02T07:05:28.297Z,3.94
2023-01-02T07:10:28.281Z,3.94
2023-01-02T07:15:28.275Z,3.97
2023-01-02T07:20:28.423Z,4.11
2023-01-02T07:25:28.268Z,4.19
2023-01-02T07:30:28.251Z,4.2
2023-01-02T07:35:28.275Z,4.55
2023-01-02T07:40:32.048Z,4.79
2023-01-02T07:45:28.313Z,4.95
2023-01-02T07:50:28.267Z,5.04
2023-01-02T07:55:28.239Z,5.12
2023-01-02T08:00:28.329Z,5.23
2023-01-02T08:05:28.220Z,5.4
2023-01-02T08:10:28.305Z,5.58
2023-01-02T08:15:28.244Z,5.81
2023-01-02T08:20:28.226Z,5.98
2023-01-02T08:25:28.225Z,6.15
2023-01-02T08:30:28.236Z,6.38
2023-01-02T08:35:37.678Z,6.62
2023-01-02T08:40:28.242Z,6.9
2023-01-02T08:45:28.208Z,7.14
2023-01-02T08:50:28.216Z,7.4
2023-01-02T08:55:28.199Z,7.74
2023-01-02T09:00:28.216Z,7.92
2023-01-02T09:05:28.217Z,8.09
2023-01-02T09:10:28.189Z,8.27
2023-01-02T09:15:28.252Z,8.43
2023-01-02T09:20:28.191Z,8.66
2023-01-02T09:25:28.221Z,8.85
2023-01-02T09:30:28.165Z,9.05
2023-01-02T09:35:28.173Z,9.24
2023-01-02T09:40:28.198Z,9.49
2023-01-02T09:45:28.162Z,9.64
2023-01-02T09:50:28.182Z,9.77
2023-01-02T09:55:28.166Z,9.85
2023-01-02T10:00:28.162Z,9.93
2023-01-02T10:05:28.148Z,10.1
2023-01-02T10:10:28.172Z,10.26
2023-01-02T10:15:28.142Z,10.38
2023-01-02T10:20:28.153Z,10.48
2023-01-02T10:25:28.102Z,10.63
2023-01-02T10:30:28.111Z,10.74
2023-01-02T10:35:28.111Z,10.9
2023-01-02T10:40:28.114Z,11.04
2023-01-02T10:45:28.104Z,11.19
2023-01-02T10:50:28.073Z,11.33
2023-01-02T10:55:28.092Z,11.5
2023-01-02T11:00:28.741Z,11.65
2023-01-02T11:05:28.073Z,11.85
2023-01-02T11:10:28.067Z,12.12
2023-01-02T11:15:28.065Z,12.35
2023-01-02T11:20:28.053Z,12.59
2023-01-02T11:25:28.050Z,12.95
2023-01-02T11:30:28.068Z,13.15
2023-01-02T11:35:28.053Z,13.18
2023-01-02T11:40:28.038Z,13.21
2023-01-02T11:45:28.136Z,13.25
2023-01-02T11:50:28.011Z,13.38
2023-01-02T11:55:28.025Z,13.43
2023-01-02T12:00:28.021Z,13.43
2023-01-02T12:05:28.010Z,13.46
2023-01-02T12:10:28.014Z,13.53
2023-01-02T12:15:27.981Z,13.59
2023-01-02T12:20:27.982Z,13.62
2023-01-02T12:25:27.976Z,13.53
2023-01-02T12:30:27.982Z,13.53
2023-01-02T12:35:27.962Z,13.53
2023-01-02T12:40:28.022Z,13.53
2023-01-02T12:45:27.953Z,13.45
2023-01-02T12:50:27.938Z,13.41
2023-01-02T12:55:27.958Z,13.45
2023-01-02T13:00:27.952Z,13.45
2023-01-02T13:05:27.928Z,13.48
2023-01-02T13:10:27.948Z,13.52
2023-01-02T13:15:27.920Z,13.4
2023-01-02T13:20:27.918Z,13.19
2023-01-02T13:25:27.898Z,13.02
2023-01-02T13:30:27.921Z,12.84
2023-01-02T13:35:27.892Z,12.68
2023-01-02T13:40:27.898Z,12.55
2023-01-02T13:50:27.897Z,12.24
2023-01-02T13:55:27.879Z,12.04
2023-01-02T14:00:27.875Z,11.94
2023-01-02T14:05:27.864Z,11.82
2023-01-02T14:10:27.901Z,11.65
2023-01-02T14:15:27.936Z,11.47
2023-01-02T14:20:27.915Z,11.34
2023-01-02T14:25:27.857Z,11.2
2023-01-02T14:30:27.868Z,11.09
2023-01-02T14:35:27.849Z,10.96
2023-01-02T14:40:27.826Z,10.85
2023-01-02T14:45:27.825Z,10.7
2023-01-02T14:50:27.815Z,10.51
2023-01-02T14:55:27.831Z,10.35
2023-01-02T15:00:27.813Z,10.2
2023-01-02T15:05:27.831Z,10.04
2023-01-02T15:10:27.822Z,9.95
2023-01-02T15:15:27.804Z,9.78
2023-01-02T15:20:27.786Z,9.77
2023-01-02T15:25:27.800Z,9.54
2023-01-02T15:30:27.776Z,9.33
2023-01-02T15:35:27.777Z,9.16
2023-01-02T15:40:27.799Z,9.02
2023-01-02T15:45:27.764Z,8.92
2023-01-02T15:50:27.787Z,8.86
2023-01-02T15:55:27.772Z,8.81
2023-01-02T16:00:27.790Z,8.79
2023-01-02T16:05:27.746Z,8.71
2023-01-02T16:10:27.737Z,8.67
2023-01-02T16:15:27.725Z,8.63
2023-01-02T16:20:27.734Z,8.52
2023-01-02T16:25:27.709Z,8.44
2023-01-02T16:30:28.379Z,8.39
2023-01-02T16:35:27.721Z,8.26
2023-01-02T16:40:58.761Z,8.18
2023-01-02T17:00:27.690Z,7.75
2023-01-02T17:05:27.681Z,7.65
2023-01-02T17:15:27.676Z,7.52
2023-01-02T17:25:27.667Z,7.42
2023-01-02T17:40:27.695Z,7.23
2023-01-02T17:45:27.713Z,7.12
2023-01-02T17:50:27.663Z,7
2023-01-02T17:55:27.633Z,6.98
2023-01-02T18:00:27.720Z,6.89
2023-01-02T18:05:27.645Z,6.85
2023-01-02T18:10:32.779Z,6.81
2023-01-02T18:15:27.703Z,6.76
2023-01-02T18:20:27.672Z,6.74
2023-01-02T18:25:27.676Z,6.77
2023-01-02T18:30:27.739Z,6.79
2023-01-02T18:35:55.878Z,6.82
2023-01-02T18:40:28.201Z,6.77
2023-01-02T18:45:27.604Z,6.74
2023-01-02T18:50:27.615Z,6.8
2023-01-02T18:55:27.586Z,6.94
2023-01-02T19:00:27.596Z,7.19
2023-01-02T19:05:27.577Z,7.3
2023-01-02T19:10:31.324Z,7.38
2023-01-02T19:15:27.589Z,7.47
2023-01-02T19:20:27.576Z,7.61
2023-01-02T19:25:27.572Z,7.92
2023-01-02T19:30:27.588Z,7.94
2023-01-02T19:35:27.570Z,7.92
2023-01-02T19:40:27.568Z,7.92
2023-01-02T19:45:27.557Z,7.95
2023-01-02T19:50:27.579Z,8
2023-01-02T19:55:27.556Z,7.92
2023-01-02T20:00:27.559Z,7.75
2023-01-02T20:05:27.557Z,7.64
2023-01-02T20:10:27.551Z,7.52
2023-01-02T20:15:27.605Z,7.4
2023-01-02T20:20:27.539Z,7.26
2023-01-02T20:25:27.534Z,7.1
2023-01-02T20:30:27.530Z,7.08
2023-01-02T20:35:27.524Z,7.14
2023-01-02T20:40:27.504Z,7.2
2023-01-02T20:45:27.530Z,7.29
2023-01-02T20:50:27.524Z,7.33
2023-01-02T20:55:27.515Z,7.38
2023-01-02T21:00:27.502Z,7.36
2023-01-02T21:05:27.492Z,7.38
2023-01-02T21:10:27.497Z,7.37
2023-01-02T21:15:27.457Z,7.34
2023-01-02T21:20:27.486Z,7.3
2023-01-02T21:25:27.460Z,7.24
2023-01-02T21:30:27.469Z,7.08
2023-01-02T21:35:27.472Z,6.98
2023-01-02T21:40:27.444Z,6.91
2023-01-02T21:45:27.461Z,6.95
2023-01-02T21:50:27.445Z,7
2023-01-02T21:55:27.461Z,7.09
2023-01-02T22:00:27.646Z,7.26
2023-01-02T22:05:27.441Z,7.35
2023-01-02T22:10:27.432Z,7.46
2023-01-02T22:15:27.433Z,7.38
2023-01-02T22:20:27.423Z,7.36
2023-01-02T22:25:27.432Z,7.4
2023-01-02T22:30:33.847Z,7.49
2023-01-02T22:35:27.395Z,7.63
2023-01-02T22:40:27.391Z,7.79
2023-01-02T22:45:27.407Z,8.03
2023-01-02T22:50:27.395Z,8.39
2023-01-02T22:55:27.394Z,8.62
2023-01-02T23:00:27.386Z,8.77
2023-01-02T23:05:27.389Z,9.11
2023-01-02T23:10:27.383Z,9.29
2023-01-02T23:15:27.381Z,9.4
2023-01-02T23:20:27.425Z,9.57
2023-01-02T23:25:27.350Z,9.77
2023-01-02T23:30:27.363Z,9.77
2023-01-02T23:35:27.353Z,9.77
2023-01-02T23:40:32.281Z,9.77
2023-01-02T23:45:27.380Z,9.77
2023-01-02T23:50:27.348Z,9.77
2023-01-02T23:55:27.358Z,9.77
